createdAt,value
2018-06-15T00:00:09.660Z,101243.86
2018-06-15T00:02:38.910Z,101250.16
2018-06-15T00:05:08.087Z,101246.63
2018-06-15T00:07:37.279Z,101242.83
2018-06-15T00:10:06.483Z,101242.56
2018-06-15T00:12:35.674Z,101245.79
2018-06-15T00:15:22.411Z,101244.82
2018-06-15T00:17:54.180Z,101246.55
2018-06-15T00:20:23.375Z,101245.59
2018-06-15T00:22:52.595Z,101245.23
2018-06-15T00:25:21.880Z,101249.69
2018-06-15T00:27:51.140Z,101246.36
2018-06-15T00:30:20.423Z,101240.27
2018-06-15T00:32:49.606Z,101252.55
2018-06-15T00:35:18.777Z,101244.55
2018-06-15T00:37:47.975Z,101245.12
2018-06-15T00:40:17.200Z,101248.58
2018-06-15T00:42:46.505Z,101244.47
2018-06-15T00:45:15.725Z,101244.88
2018-06-15T00:47:45.368Z,101238.57
2018-06-15T00:50:14.564Z,101236.87
2018-06-15T00:52:44.076Z,101234.96
2018-06-15T00:55:13.241Z,101234.96
2018-06-15T00:57:46.570Z,101237.25
2018-06-15T01:00:16.245Z,101238.77
2018-06-15T01:02:45.409Z,101236.50
2018-06-15T01:05:14.695Z,101236.67
2018-06-15T01:07:43.866Z,101246.27
2018-06-15T01:10:12.988Z,101237.61
2018-06-15T01:12:42.146Z,101232.78
2018-06-15T01:15:11.301Z,101224.30
2018-06-15T01:17:40.510Z,101225.53
2018-06-15T01:20:09.703Z,101221.07
2018-06-15T01:22:38.861Z,101221.46
2018-06-15T01:25:07.981Z,101214.80
2018-06-15T01:27:37.191Z,101214.03
2018-06-15T01:30:07.016Z,101218.59
2018-06-15T01:32:36.210Z,101209.00
2018-06-15T01:35:05.361Z,101203.67
2018-06-15T01:37:34.810Z,101211.66
2018-06-15T01:40:04.262Z,101213.56
2018-06-15T01:42:33.463Z,101208.53
2018-06-15T01:45:02.628Z,101211.00
2018-06-15T01:47:31.792Z,101214.80
2018-06-15T01:50:00.921Z,101216.50
2018-06-15T01:52:30.252Z,101205.65
2018-06-15T01:54:59.370Z,101206.78
2018-06-15T01:57:28.554Z,101205.09
2018-06-15T01:59:58.058Z,101205.45
2018-06-15T02:02:27.244Z,101199.36
2018-06-15T02:04:56.443Z,101201.56
2018-06-15T02:07:25.592Z,101201.92
2018-06-15T02:09:54.878Z,101209.05
2018-06-15T02:12:24.174Z,101202.02
2018-06-15T02:14:54.011Z,101201.66
2018-06-15T02:17:23.205Z,101201.86
2018-06-15T02:19:52.397Z,101196.33
2018-06-15T02:22:21.586Z,101202.81
2018-06-15T02:24:50.786Z,101200.55
2018-06-15T02:27:19.941Z,101208.33
2018-06-15T02:29:49.183Z,101204.53
2018-06-15T02:32:18.351Z,101208.92
2018-06-15T02:34:47.465Z,101207.30
2018-06-15T02:37:16.633Z,101209.77
2018-06-15T02:39:45.792Z,101204.71
2018-06-15T02:42:14.999Z,101213.27
2018-06-15T02:44:44.138Z,101212.70
2018-06-15T02:47:13.316Z,101216.13
2018-06-15T02:49:59.163Z,101218.23
2018-06-15T02:52:30.994Z,101217.64
2018-06-15T02:55:00.204Z,101212.21
2018-06-15T02:57:29.449Z,101219.91
2018-06-15T02:59:58.615Z,101215.55
2018-06-15T03:02:28.105Z,101221.07
2018-06-15T03:04:57.261Z,101218.88
2018-06-15T03:07:26.482Z,101213.45
2018-06-15T03:09:55.690Z,101222.87
2018-06-15T03:12:24.898Z,101222.30
2018-06-15T03:14:54.076Z,101226.39
2018-06-15T03:17:23.197Z,101221.44
2018-06-15T03:19:52.376Z,101229.23
2018-06-15T03:22:21.441Z,101224.67
2018-06-15T03:24:50.591Z,101220.00
2018-06-15T03:27:19.697Z,101228.00
2018-06-15T03:29:48.874Z,101231.33
2018-06-15T03:32:18.055Z,101225.34
2018-06-15T03:34:47.208Z,101232.29
2018-06-15T03:37:16.358Z,101231.05
2018-06-15T03:39:45.490Z,101238.47
2018-06-15T03:42:14.653Z,101239.80
2018-06-15T03:44:43.843Z,101231.81
2018-06-15T03:47:13.437Z,101241.13
2018-06-15T03:49:42.632Z,101244.30
2018-06-15T03:52:11.787Z,101234.48
2018-06-15T03:54:41.044Z,101236.97
2018-06-15T03:57:10.246Z,101244.19
2018-06-15T03:59:39.466Z,101246.95
2018-06-15T04:02:08.633Z,101250.11
2018-06-15T04:04:37.790Z,101251.61
2018-06-15T04:07:06.970Z,101254.95
2018-06-15T04:09:36.123Z,101265.98
2018-06-15T04:12:05.319Z,101259.13
2018-06-15T04:14:34.491Z,101252.55
2018-06-15T04:17:03.662Z,101248.45
2018-06-15T04:19:32.834Z,101249.98
2018-06-15T04:22:02.008Z,101251.48
2018-06-15T04:24:31.167Z,101249.00
2018-06-15T04:27:00.349Z,101254.33
2018-06-15T04:29:29.489Z,101255.77
2018-06-15T04:31:59.672Z,101261.16
2018-06-15T04:34:28.799Z,101258.83
2018-06-15T04:36:57.984Z,101256.03
2018-06-15T04:39:27.136Z,101260.96
2018-06-15T04:41:56.259Z,101267.63
2018-06-15T04:44:25.440Z,101268.76
2018-06-15T04:46:54.585Z,101271.32
2018-06-15T04:49:23.803Z,101273.72
2018-06-15T04:51:52.988Z,101272.95
2018-06-15T04:54:22.227Z,101276.95
2018-06-15T04:56:51.613Z,101273.26
2018-06-15T04:59:21.000Z,101277.52
2018-06-15T05:01:50.155Z,101277.72
2018-06-15T05:04:19.851Z,101280.39
2018-06-15T05:06:49.033Z,101276.75
2018-06-15T05:09:20.153Z,101275.33
2018-06-15T05:11:49.638Z,101275.62
2018-06-15T05:14:18.812Z,101273.06
2018-06-15T05:16:48.083Z,101283.98
2018-06-15T05:19:17.293Z,101281.02
2018-06-15T05:21:46.483Z,101278.25
2018-06-15T05:24:15.923Z,101280.82
2018-06-15T05:26:45.109Z,101273.94
2018-06-15T05:29:14.321Z,101269.02
2018-06-15T05:31:43.486Z,101269.01
2018-06-15T05:34:12.624Z,101277.06
2018-06-15T05:36:41.874Z,101277.05
2018-06-15T05:39:11.889Z,101283.63
2018-06-15T05:41:41.084Z,101282.86
2018-06-15T05:44:10.248Z,101281.73
2018-06-15T05:46:39.440Z,101275.42
2018-06-15T05:49:08.679Z,101278.70
2018-06-15T05:51:37.894Z,101278.78
2018-06-15T05:54:07.124Z,101285.06
2018-06-15T05:56:36.318Z,101284.83
2018-06-15T05:59:05.599Z,101281.63
2018-06-15T06:01:34.782Z,101279.53
2018-06-15T06:04:04.114Z,101285.14
2018-06-15T06:06:33.252Z,101285.89
2018-06-15T06:09:02.423Z,101285.79
2018-06-15T06:11:31.645Z,101293.16
2018-06-15T06:14:00.810Z,101302.27
2018-06-15T06:16:30.038Z,101306.27
2018-06-15T06:18:59.240Z,101308.52
2018-06-15T06:21:28.452Z,101316.49
2018-06-15T06:23:57.912Z,101319.64
2018-06-15T06:26:27.472Z,101315.20
2018-06-15T06:28:56.642Z,101318.20
2018-06-15T06:31:25.818Z,101321.55
2018-06-15T06:33:55.041Z,101322.85
2018-06-15T06:36:24.232Z,101319.74
2018-06-15T06:38:53.404Z,101322.45
2018-06-15T06:41:22.644Z,101323.56
2018-06-15T06:43:51.839Z,101325.30
2018-06-15T06:46:20.968Z,101324.62
2018-06-15T06:48:50.224Z,101323.06
2018-06-15T06:51:19.432Z,101329.64
2018-06-15T06:53:48.625Z,101322.64
2018-06-15T06:56:17.818Z,101327.87
2018-06-15T06:58:47.118Z,101326.20
2018-06-15T07:01:16.311Z,101321.11
2018-06-15T07:03:45.526Z,101320.53
2018-06-15T07:06:14.706Z,101315.64
2018-06-15T07:08:44.283Z,101318.35
2018-06-15T07:11:13.686Z,101321.06
2018-06-15T07:13:42.930Z,101316.95
2018-06-15T07:16:12.093Z,101325.80
2018-06-15T07:18:41.716Z,101327.78
2018-06-15T07:21:10.907Z,101323.83
2018-06-15T07:23:40.231Z,101324.55
2018-06-15T07:26:09.435Z,101332.67
2018-06-15T07:28:38.668Z,101328.78
2018-06-15T07:31:07.890Z,101325.28
2018-06-15T07:33:37.341Z,101326.00
2018-06-15T07:36:06.520Z,101318.66
2018-06-15T07:38:35.768Z,101318.95
2018-06-15T07:41:04.979Z,101319.17
2018-06-15T07:43:34.182Z,101316.25
2018-06-15T07:46:03.535Z,101314.55
2018-06-15T07:48:32.693Z,101319.56
2018-06-15T07:51:01.871Z,101324.51
2018-06-15T07:53:31.189Z,101327.38
2018-06-15T07:56:00.480Z,101321.48
2018-06-15T07:58:29.657Z,101330.92
2018-06-15T08:00:58.986Z,101333.25
2018-06-15T08:03:28.265Z,101328.27
2018-06-15T08:05:57.448Z,101330.80
2018-06-15T08:08:26.683Z,101333.61
2018-06-15T08:10:56.004Z,101333.61
2018-06-15T08:13:25.184Z,101329.71
2018-06-15T08:15:54.478Z,101329.23
2018-06-15T08:18:23.699Z,101332.03
2018-06-15T08:20:54.007Z,101328.11
2018-06-15T08:23:23.196Z,101332.25
2018-06-15T08:25:52.426Z,101329.82
2018-06-15T08:28:21.667Z,101323.60
2018-06-15T08:30:50.890Z,101324.08
2018-06-15T08:33:20.046Z,101326.30
2018-06-15T08:35:49.552Z,101326.77
2018-06-15T08:38:18.888Z,101323.97
2018-06-15T08:40:48.162Z,101326.05
2018-06-15T08:43:17.494Z,101325.57
2018-06-15T08:45:46.701Z,101323.63
2018-06-15T08:48:15.957Z,101323.12
2018-06-15T08:50:45.302Z,101322.88
2018-06-15T08:53:14.862Z,101318.36
2018-06-15T08:55:44.348Z,101322.78
2018-06-15T08:58:13.698Z,101314.22
2018-06-15T09:00:42.945Z,101313.60
2018-06-15T09:03:13.204Z,101312.63
2018-06-15T09:05:42.635Z,101313.89
2018-06-15T09:08:12.104Z,101313.86
2018-06-15T09:10:41.475Z,101308.61
2018-06-15T09:13:10.781Z,101312.22
2018-06-15T09:15:40.155Z,101313.05
2018-06-15T09:18:09.505Z,101312.03
2018-06-15T09:20:38.860Z,101308.88
2018-06-15T09:23:08.111Z,101309.48
2018-06-15T09:25:37.503Z,101309.73
2018-06-15T09:28:06.914Z,101304.64
2018-06-15T09:30:36.217Z,101307.60
2018-06-15T09:33:05.471Z,101309.33
2018-06-15T09:35:34.710Z,101306.31
2018-06-15T09:38:04.054Z,101304.52
2018-06-15T09:40:33.408Z,101314.00
2018-06-15T09:43:02.633Z,101317.36
2018-06-15T09:45:32.049Z,101311.02
2018-06-15T09:48:01.418Z,101306.80
2018-06-15T09:50:30.742Z,101310.02
2018-06-15T09:53:00.017Z,101313.45
2018-06-15T09:55:29.314Z,101309.02
2018-06-15T09:57:58.643Z,101302.30
2018-06-15T10:00:33.174Z,101309.81
2018-06-15T10:03:02.470Z,101310.43
2018-06-15T10:05:31.919Z,101304.04
2018-06-15T10:08:01.168Z,101303.03
2018-06-15T10:10:30.473Z,101308.59
2018-06-15T10:12:59.874Z,101301.47
2018-06-15T10:15:29.255Z,101301.16
2018-06-15T10:17:58.572Z,101303.50
2018-06-15T10:20:29.034Z,101306.60
2018-06-15T10:22:58.308Z,101307.25
2018-06-15T10:25:27.522Z,101311.31
2018-06-15T10:27:56.760Z,101306.17
2018-06-15T10:30:26.183Z,101298.86
2018-06-15T10:32:55.562Z,101305.77
2018-06-15T10:35:24.859Z,101305.81
2018-06-15T10:37:54.329Z,101302.14
2018-06-15T10:40:23.665Z,101303.70
2018-06-15T10:42:53.103Z,101302.08
2018-06-15T10:45:23.276Z,101302.56
2018-06-15T10:47:52.746Z,101297.98
2018-06-15T10:50:22.136Z,101306.39
2018-06-15T10:52:51.362Z,101307.41
2018-06-15T10:55:20.822Z,101302.14
2018-06-15T10:57:50.021Z,101301.47
2018-06-15T11:00:19.372Z,101308.25
2018-06-15T11:02:48.716Z,101300.61
2018-06-15T11:05:18.074Z,101301.23
2018-06-15T11:07:47.344Z,101297.73
2018-06-15T11:10:16.582Z,101299.13
2018-06-15T11:12:45.878Z,101289.02
2018-06-15T11:15:15.099Z,101292.45
2018-06-15T11:17:44.418Z,101289.48
2018-06-15T11:20:13.612Z,101283.17
2018-06-15T11:22:42.942Z,101287.83
2018-06-15T11:25:12.235Z,101281.52
2018-06-15T11:27:41.480Z,101291.44
2018-06-15T11:30:10.799Z,101273.33
2018-06-15T11:32:40.031Z,101274.72
2018-06-15T11:35:09.302Z,101277.00
2018-06-15T11:37:38.484Z,101265.64
2018-06-15T11:40:07.641Z,101276.34
2018-06-15T11:42:36.860Z,101270.39
2018-06-15T11:45:06.130Z,101266.27
2018-06-15T11:47:35.512Z,101266.66
2018-06-15T11:50:04.955Z,101261.52
2018-06-15T11:52:34.069Z,101259.56
2018-06-15T11:55:03.379Z,101258.03
2018-06-15T11:57:32.642Z,101245.81
2018-06-15T12:00:01.832Z,101247.40
2018-06-15T12:02:31.003Z,101252.22
2018-06-15T12:05:00.310Z,101241.69
2018-06-15T12:07:29.793Z,101251.00
2018-06-15T12:09:58.997Z,101249.34
2018-06-15T12:12:28.259Z,101246.83
2018-06-15T12:14:57.392Z,101238.88
2018-06-15T12:17:26.629Z,101246.77
2018-06-15T12:19:55.992Z,101233.52
2018-06-15T12:22:25.336Z,101235.42
2018-06-15T12:24:54.576Z,101240.50
2018-06-15T12:27:23.770Z,101237.77
2018-06-15T12:29:53.048Z,101240.47
2018-06-15T12:32:22.369Z,101224.23
2018-06-15T12:34:51.630Z,101246.56
2018-06-15T12:37:20.838Z,101235.09
2018-06-15T12:39:50.675Z,101236.63
2018-06-15T12:42:19.931Z,101239.45
2018-06-15T12:44:49.186Z,101240.50
2018-06-15T12:47:18.541Z,101234.98
2018-06-15T12:49:47.826Z,101236.11
2018-06-15T12:52:17.041Z,101233.83
2018-06-15T12:54:46.645Z,101226.34
2018-06-15T12:57:15.955Z,101230.83
2018-06-15T12:59:45.136Z,101228.46
2018-06-15T13:02:14.433Z,101228.89
2018-06-15T13:04:43.634Z,101234.59
2018-06-15T13:07:12.876Z,101231.82
2018-06-15T13:09:42.060Z,101230.25
2018-06-15T13:12:12.070Z,101231.07
2018-06-15T13:14:41.318Z,101229.81
2018-06-15T13:17:10.556Z,101229.11
2018-06-15T13:19:39.851Z,101231.60
2018-06-15T13:22:09.495Z,101226.17
2018-06-15T13:24:38.706Z,101232.47
2018-06-15T13:27:08.061Z,101222.53
2018-06-15T13:29:37.384Z,101224.55
2018-06-15T13:32:06.769Z,101224.53
2018-06-15T13:34:35.971Z,101223.81
2018-06-15T13:37:05.478Z,101217.95
2018-06-15T13:39:34.858Z,101215.92
2018-06-15T13:42:04.250Z,101218.62
2018-06-15T13:44:33.642Z,101211.05
2018-06-15T13:47:03.278Z,101218.88
2018-06-15T13:49:32.413Z,101218.27
2018-06-15T13:52:01.767Z,101215.09
2018-06-15T13:54:30.973Z,101220.14
2018-06-15T13:57:00.169Z,101219.31
2018-06-15T13:59:29.300Z,101223.53
2018-06-15T14:01:58.428Z,101216.08
2018-06-15T14:04:28.163Z,101214.31
2018-06-15T14:06:57.484Z,101210.09
2018-06-15T14:09:26.618Z,101210.50
2018-06-15T14:11:55.861Z,101200.28
2018-06-15T14:14:25.100Z,101204.53
2018-06-15T14:16:54.412Z,101199.48
2018-06-15T14:19:23.704Z,101201.85
2018-06-15T14:21:53.199Z,101202.20
2018-06-15T14:24:22.915Z,101201.27
2018-06-15T14:26:52.221Z,101188.50
2018-06-15T14:29:21.450Z,101185.28
2018-06-15T14:31:50.715Z,101185.03
2018-06-15T14:34:19.943Z,101189.56
2018-06-15T14:36:49.108Z,101192.64
2018-06-15T14:39:18.349Z,101184.75
2018-06-15T14:41:47.554Z,101187.78
2018-06-15T14:44:16.802Z,101186.02
2018-06-15T14:46:46.005Z,101190.67
2018-06-15T14:49:15.201Z,101185.00
2018-06-15T14:51:44.346Z,101191.23
2018-06-15T14:54:13.592Z,101190.16
2018-06-15T14:56:43.162Z,101184.30
2018-06-15T14:59:12.286Z,101181.69
2018-06-15T15:01:41.573Z,101177.05
2018-06-15T15:04:10.792Z,101177.97
2018-06-15T15:06:39.988Z,101177.80
2018-06-15T15:09:09.671Z,101174.35
2018-06-15T15:11:38.867Z,101176.75
2018-06-15T15:14:08.112Z,101175.91
2018-06-15T15:16:37.509Z,101172.68
2018-06-15T15:19:06.850Z,101173.00
2018-06-15T15:21:36.156Z,101169.98
2018-06-15T15:24:05.501Z,101170.39
2018-06-15T15:26:34.800Z,101172.63
2018-06-15T15:29:04.980Z,101176.02
2018-06-15T15:31:34.903Z,101164.88
2018-06-15T15:34:04.140Z,101171.52
2018-06-15T15:36:33.387Z,101166.29
2018-06-15T15:39:02.688Z,101171.03
2018-06-15T15:41:31.913Z,101166.38
2018-06-15T15:44:01.207Z,101160.45
2018-06-15T15:46:30.435Z,101160.30
2018-06-15T15:48:59.657Z,101151.11
2018-06-15T15:51:28.926Z,101156.11
2018-06-15T15:53:58.348Z,101151.48
2018-06-15T15:56:27.623Z,101142.09
2018-06-15T15:58:57.204Z,101140.11
2018-06-15T16:01:26.598Z,101142.81
2018-06-15T16:03:55.729Z,101141.10
2018-06-15T16:06:25.737Z,101144.11
2018-06-15T16:08:55.007Z,101137.45
2018-06-15T16:11:24.242Z,101135.66
2018-06-15T16:13:53.562Z,101136.88
2018-06-15T16:16:22.778Z,101138.50
2018-06-15T16:18:51.923Z,101132.51
2018-06-15T16:21:21.686Z,101134.86
2018-06-15T16:23:50.933Z,101124.73
2018-06-15T16:26:20.111Z,101128.00
2018-06-15T16:28:49.340Z,101144.94
2018-06-15T16:31:18.568Z,101139.04
2018-06-15T16:33:47.823Z,101134.12
2018-06-15T16:36:17.126Z,101142.58
2018-06-15T16:38:46.332Z,101141.48
2018-06-15T16:41:15.529Z,101140.26
2018-06-15T16:43:44.930Z,101134.97
2018-06-15T16:46:14.253Z,101138.00
2018-06-15T16:48:43.444Z,101141.33
2018-06-15T16:51:12.672Z,101144.64
2018-06-15T16:53:41.846Z,101141.55
2018-06-15T16:56:11.546Z,101142.96
2018-06-15T16:58:40.813Z,101138.14
2018-06-15T17:01:09.999Z,101141.66
2018-06-15T17:03:39.198Z,101142.25
2018-06-15T17:06:08.363Z,101141.16
2018-06-15T17:08:37.702Z,101143.49
2018-06-15T17:11:06.861Z,101139.13
2018-06-15T17:13:36.035Z,101143.52
2018-06-15T17:16:05.622Z,101138.43
2018-06-15T17:18:34.941Z,101137.70
2018-06-15T17:21:04.140Z,101145.67
2018-06-15T17:23:33.256Z,101143.94
2018-06-15T17:26:02.722Z,101147.39
2018-06-15T17:28:31.914Z,101149.48
2018-06-15T17:31:01.152Z,101154.48
2018-06-15T17:33:30.311Z,101158.67
2018-06-15T17:35:59.513Z,101156.16
2018-06-15T17:38:28.657Z,101160.44
2018-06-15T17:40:58.003Z,101160.70
2018-06-15T17:43:27.224Z,101161.08
2018-06-15T17:45:56.418Z,101162.77
2018-06-15T17:48:25.577Z,101164.00
2018-06-15T17:50:54.811Z,101168.16
2018-06-15T17:53:23.991Z,101167.33
2018-06-15T17:55:53.320Z,101161.26
2018-06-15T17:58:22.507Z,101157.70
2018-06-15T18:00:51.794Z,101160.73
2018-06-15T18:03:21.149Z,101163.39
2018-06-15T18:05:50.419Z,101153.54
2018-06-15T18:08:19.591Z,101160.09
2018-06-15T18:10:48.750Z,101158.59
2018-06-15T18:13:18.043Z,101167.56
2018-06-15T18:15:47.260Z,101162.53
2018-06-15T18:18:16.402Z,101162.63
2018-06-15T18:20:45.555Z,101161.28
2018-06-15T18:23:14.852Z,101167.59
2018-06-15T18:25:44.044Z,101162.15
2018-06-15T18:28:13.225Z,101164.70
2018-06-15T18:30:42.371Z,101156.53
2018-06-15T18:33:11.582Z,101157.45
2018-06-15T18:35:40.755Z,101155.77
2018-06-15T18:38:09.858Z,101147.69
2018-06-15T18:40:39.098Z,101152.63
2018-06-15T18:43:08.370Z,101144.90
2018-06-15T18:45:37.516Z,101151.92
2018-06-15T18:48:06.837Z,101148.94
2018-06-15T18:50:36.021Z,101149.07
2018-06-15T18:53:05.263Z,101151.72
2018-06-15T18:55:35.065Z,101150.52
2018-06-15T18:58:07.267Z,101153.41
2018-06-15T19:00:36.427Z,101153.02
2018-06-15T19:03:06.001Z,101149.66
2018-06-15T19:05:35.170Z,101154.52
2018-06-15T19:08:04.450Z,101153.48
2018-06-15T19:10:33.674Z,101150.07
2018-06-15T19:13:02.907Z,101150.30
2018-06-15T19:15:32.176Z,101152.91
2018-06-15T19:18:01.435Z,101150.79
2018-06-15T19:20:30.681Z,101153.56
2018-06-15T19:22:59.923Z,101149.86
2018-06-15T19:25:29.048Z,101145.83
2018-06-15T19:27:58.201Z,101147.55
2018-06-15T19:30:27.429Z,101152.27
2018-06-15T19:32:56.612Z,101143.06
2018-06-15T19:35:25.817Z,101150.50
2018-06-15T19:37:55.030Z,101152.30
2018-06-15T19:40:24.251Z,101143.80
2018-06-15T19:42:53.497Z,101147.66
2018-06-15T19:45:22.790Z,101151.53
2018-06-15T19:47:52.021Z,101149.19
2018-06-15T19:50:21.230Z,101145.98
2018-06-15T19:52:50.423Z,101150.05
2018-06-15T19:55:19.600Z,101155.77
2018-06-15T19:57:48.811Z,101153.39
2018-06-15T20:00:18.136Z,101149.28
2018-06-15T20:02:47.522Z,101150.03
2018-06-15T20:05:16.746Z,101149.86
2018-06-15T20:07:45.930Z,101145.40
2018-06-15T20:10:15.239Z,101147.87
2018-06-15T20:12:44.551Z,101150.71
2018-06-15T20:15:13.756Z,101147.22
2018-06-15T20:17:42.929Z,101142.73
2018-06-15T20:20:12.142Z,101147.03
2018-06-15T20:22:41.296Z,101147.54
2018-06-15T20:25:10.449Z,101146.33
2018-06-15T20:27:39.797Z,101150.98
2018-06-15T20:30:09.467Z,101152.58
2018-06-15T20:32:38.646Z,101149.91
2018-06-15T20:35:07.872Z,101152.87
2018-06-15T20:37:37.040Z,101152.91
2018-06-15T20:40:06.231Z,101141.48
2018-06-15T20:42:35.336Z,101145.00
2018-06-15T20:45:04.591Z,101143.31
2018-06-15T20:47:33.736Z,101142.23
2018-06-15T20:50:03.109Z,101138.69
2018-06-15T20:52:32.355Z,101138.12
2018-06-15T20:55:01.554Z,101131.77
2018-06-15T20:57:30.757Z,101132.55
2018-06-15T20:59:59.982Z,101132.80
2018-06-15T21:02:29.142Z,101131.73
2018-06-15T21:04:58.363Z,101129.30
2018-06-15T21:07:27.619Z,101127.58
2018-06-15T21:09:56.834Z,101125.86
2018-06-15T21:12:26.016Z,101129.50
2018-06-15T21:14:55.176Z,101123.17
2018-06-15T21:17:24.352Z,101129.04
2018-06-15T21:19:53.552Z,101129.74
2018-06-15T21:22:22.785Z,101129.13
2018-06-15T21:24:52.003Z,101133.76
2018-06-15T21:27:21.145Z,101138.61
2018-06-15T21:29:57.002Z,101133.89
2018-06-15T21:32:26.125Z,101138.27
2018-06-15T21:34:55.269Z,101139.25
2018-06-15T21:37:24.549Z,101126.92
2018-06-15T21:39:53.733Z,101132.80
2018-06-15T21:42:22.891Z,101129.13
2018-06-15T21:44:52.084Z,101121.94
2018-06-15T21:47:21.232Z,101121.08
2018-06-15T21:49:50.399Z,101122.07
2018-06-15T21:52:19.663Z,101120.73
2018-06-15T21:54:48.811Z,101127.92
2018-06-15T21:57:17.979Z,101126.70
2018-06-15T21:59:47.232Z,101123.67
2018-06-15T22:02:16.544Z,101117.42
2018-06-15T22:04:45.710Z,101124.41
2018-06-15T22:07:14.869Z,101122.44
2018-06-15T22:09:44.080Z,101122.44
2018-06-15T22:12:13.231Z,101118.67
2018-06-15T22:14:42.641Z,101125.91
2018-06-15T22:17:11.847Z,101122.13
2018-06-15T22:19:41.053Z,101121.88
2018-06-15T22:22:10.225Z,101116.55
2018-06-15T22:24:39.391Z,101123.30
2018-06-15T22:27:08.594Z,101129.02
2018-06-15T22:29:37.815Z,101131.51
2018-06-15T22:32:06.995Z,101128.60
2018-06-15T22:34:36.232Z,101125.69
2018-06-15T22:37:05.404Z,101124.86
2018-06-15T22:39:34.577Z,101124.63
2018-06-15T22:42:04.017Z,101131.31
2018-06-15T22:44:33.288Z,101135.33
2018-06-15T22:47:02.454Z,101137.52
2018-06-15T22:49:31.576Z,101138.02
2018-06-15T22:52:00.783Z,101142.28
2018-06-15T22:54:30.018Z,101142.18
2018-06-15T22:56:59.281Z,101143.13
2018-06-15T22:59:28.428Z,101138.02
2018-06-15T23:01:57.671Z,101135.83
2018-06-15T23:04:26.905Z,101140.09
2018-06-15T23:06:56.222Z,101131.58
2018-06-15T23:09:25.454Z,101128.28
2018-06-15T23:11:54.647Z,101128.89
2018-06-15T23:14:23.918Z,101127.80
2018-06-15T23:16:53.120Z,101130.61
2018-06-15T23:19:22.304Z,101130.34
2018-06-15T23:21:51.539Z,101128.89
2018-06-15T23:24:20.833Z,101133.51
2018-06-15T23:26:50.058Z,101136.66
2018-06-15T23:29:19.260Z,101139.45
2018-06-15T23:31:48.453Z,101134.22
2018-06-15T23:34:17.635Z,101138.72
2018-06-15T23:36:46.896Z,101133.14
2018-06-15T23:39:16.921Z,101142.36
2018-06-15T23:41:46.109Z,101139.45
2018-06-15T23:44:15.302Z,101138.70
2018-06-15T23:46:44.509Z,101137.25
2018-06-15T23:49:13.651Z,101145.28
2018-06-15T23:51:42.856Z,101140.79
2018-06-15T23:54:12.110Z,101140.79
2018-06-15T23:56:41.305Z,101143.55
2018-06-15T23:59:10.815Z,101141.83
